RYR46J EDDL-LOWW
Flight info
| Callsign | RYR46J |
|---|---|
| Flight time | 1h 7m |
| Altitude | 35000 |
| Route | DODEN4H DODEN Y853 BOMBI DCT ESATI DCT BARSU DCT EKSOS DCT LULAR DCT RUDAP DCT BUDEX BUDEX2W |
| Aircraft | B738/M-SDE2E3FGHIRWXY/LB1 |
Departure
| Time | 2026-05-04 19:41 |
|---|---|
| Airport | Düsseldorf Airport (EDDL) |
Arrival
| Time | 2026-05-04 20:48 |
|---|---|
| Airport | Vienna International Airport (LOWW) |
| Time | Latitude | Longitude | Altitude | Speed | Heading |
|---|---|---|---|---|---|
| 2026-05-04 18:37 | 51.27632 | 6.75930 | 125 ft | 0 kts | 68° |
| 2026-05-04 19:18 | 51.27627 | 6.75913 | 125 ft | 4 kts | 65° |
| 2026-05-04 19:18 | 51.27614 | 6.75876 | 124 ft | 4 kts | 49° |
| 2026-05-04 19:18 | 51.27595 | 6.75853 | 125 ft | 4 kts | 358° |
| 2026-05-04 19:19 | 51.27574 | 6.75865 | 124 ft | 4 kts | 333° |
| 2026-05-04 19:19 | 51.27554 | 6.75881 | 125 ft | 1 kts | 333° |
| 2026-05-04 19:24 | 51.27573 | 6.75866 | 126 ft | 6 kts | 333° |
| 2026-05-04 19:24 | 51.27617 | 6.75830 | 128 ft | 7 kts | 333° |
| 2026-05-04 19:24 | 51.27664 | 6.75810 | 127 ft | 7 kts | 355° |
| 2026-05-04 19:24 | 51.27720 | 6.75806 | 129 ft | 8 kts | 1° |
| 2026-05-04 19:25 | 51.27778 | 6.75810 | 129 ft | 8 kts | 4° |
| 2026-05-04 19:25 | 51.27835 | 6.75814 | 126 ft | 9 kts | 1° |
| 2026-05-04 19:25 | 51.27892 | 6.75817 | 128 ft | 2 kts | 1° |
| 2026-05-04 19:25 | 51.27904 | 6.75817 | 128 ft | 2 kts | 1° |
| 2026-05-04 19:26 | 51.27920 | 6.75818 | 128 ft | 3 kts | 1° |
| 2026-05-04 19:26 | 51.27940 | 6.75818 | 128 ft | 3 kts | 1° |
| 2026-05-04 19:26 | 51.27954 | 6.75819 | 128 ft | 3 kts | 359° |
| 2026-05-04 19:26 | 51.27986 | 6.75814 | 124 ft | 7 kts | 2° |
| 2026-05-04 19:27 | 51.28033 | 6.75839 | 127 ft | 7 kts | 31° |
| 2026-05-04 19:27 | 51.28070 | 6.75895 | 126 ft | 7 kts | 52° |
| 2026-05-04 19:27 | 51.28088 | 6.75932 | 127 ft | 1 kts | 52° |
| 2026-05-04 19:27 | 51.28093 | 6.75943 | 127 ft | 2 kts | 52° |
| 2026-05-04 19:28 | 51.28102 | 6.75961 | 126 ft | 3 kts | 52° |
| 2026-05-04 19:28 | 51.28123 | 6.76005 | 129 ft | 7 kts | 52° |
| 2026-05-04 19:28 | 51.28132 | 6.76023 | 126 ft | 0 kts | 53° |
| 2026-05-04 19:30 | 51.28144 | 6.76049 | 124 ft | 9 kts | 53° |
| 2026-05-04 19:30 | 51.28195 | 6.76157 | 128 ft | 14 kts | 53° |
| 2026-05-04 19:30 | 51.28257 | 6.76287 | 127 ft | 15 kts | 53° |
| 2026-05-04 19:31 | 51.28318 | 6.76417 | 123 ft | 14 kts | 53° |
| 2026-05-04 19:31 | 51.28378 | 6.76542 | 123 ft | 14 kts | 52° |
| 2026-05-04 19:31 | 51.28435 | 6.76661 | 122 ft | 13 kts | 52° |
| 2026-05-04 19:31 | 51.28491 | 6.76778 | 125 ft | 15 kts | 53° |
| 2026-05-04 19:32 | 51.28573 | 6.76951 | 127 ft | 22 kts | 53° |
| 2026-05-04 19:32 | 51.28667 | 6.77147 | 129 ft | 23 kts | 52° |
| 2026-05-04 19:32 | 51.28774 | 6.77373 | 129 ft | 26 kts | 53° |
| 2026-05-04 19:32 | 51.28877 | 6.77589 | 123 ft | 24 kts | 53° |
| 2026-05-04 19:33 | 51.28976 | 6.77796 | 128 ft | 23 kts | 52° |
| 2026-05-04 19:33 | 51.29069 | 6.77992 | 126 ft | 22 kts | 53° |
| 2026-05-04 19:33 | 51.29159 | 6.78181 | 135 ft | 20 kts | 53° |
| 2026-05-04 19:33 | 51.29233 | 6.78301 | 139 ft | 13 kts | 35° |
| 2026-05-04 19:34 | 51.29308 | 6.78381 | 143 ft | 13 kts | 39° |
| 2026-05-04 19:34 | 51.29359 | 6.78441 | 146 ft | 7 kts | 30° |
| 2026-05-04 19:34 | 51.29378 | 6.78457 | 147 ft | 2 kts | 25° |
| 2026-05-04 19:34 | 51.29385 | 6.78460 | 147 ft | 0 kts | 19° |
| 2026-05-04 19:37 | 51.29388 | 6.78462 | 147 ft | 3 kts | 16° |
| 2026-05-04 19:38 | 51.29433 | 6.78468 | 148 ft | 10 kts | 360° |
| 2026-05-04 19:38 | 51.29487 | 6.78422 | 149 ft | 9 kts | 274° |
| 2026-05-04 19:38 | 51.29475 | 6.78382 | 148 ft | 0 kts | 233° |
| 2026-05-04 19:40 | 51.29423 | 6.78275 | 146 ft | 38 kts | 232° |
| 2026-05-04 19:40 | 51.29118 | 6.77634 | 127 ft | 105 kts | 233° |
| 2026-05-04 19:40 | 51.28556 | 6.76472 | 150 ft | 156 kts | 231° |
| 2026-05-04 19:40 | 51.27882 | 6.74980 | 639 ft | 169 kts | 232° |
| 2026-05-04 19:41 | 51.27182 | 6.73466 | 1433 ft | 169 kts | 231° |
| 2026-05-04 19:41 | 51.26428 | 6.71856 | 1856 ft | 196 kts | 231° |
| 2026-05-04 19:41 | 51.25569 | 6.70020 | 2116 ft | 220 kts | 232° |
| 2026-05-04 19:41 | 51.24632 | 6.68014 | 2654 ft | 233 kts | 232° |
| 2026-05-04 19:42 | 51.23612 | 6.65837 | 3116 ft | 252 kts | 231° |
| 2026-05-04 19:42 | 51.22266 | 6.64045 | 3913 ft | 256 kts | 202° |
| 2026-05-04 19:42 | 51.20515 | 6.63534 | 4642 ft | 260 kts | 180° |
| 2026-05-04 19:42 | 51.18700 | 6.63744 | 4963 ft | 263 kts | 174° |
| 2026-05-04 19:43 | 51.16866 | 6.64085 | 5397 ft | 268 kts | 173° |
| 2026-05-04 19:43 | 51.15090 | 6.64960 | 6284 ft | 269 kts | 148° |
| 2026-05-04 19:43 | 51.13777 | 6.67026 | 7293 ft | 267 kts | 125° |
| 2026-05-04 19:43 | 51.13109 | 6.69834 | 8056 ft | 280 kts | 101° |
| 2026-05-04 19:44 | 51.13085 | 6.72984 | 8795 ft | 288 kts | 91° |
| 2026-05-04 19:44 | 51.13206 | 6.76197 | 9555 ft | 293 kts | 90° |
| 2026-05-04 19:44 | 51.13353 | 6.79463 | 10267 ft | 299 kts | 89° |
| 2026-05-04 19:44 | 51.13503 | 6.82879 | 10514 ft | 322 kts | 89° |
| 2026-05-04 19:45 | 51.13657 | 6.86567 | 10709 ft | 344 kts | 89° |
| 2026-05-04 19:45 | 51.13814 | 6.90497 | 10981 ft | 362 kts | 89° |
| 2026-05-04 19:45 | 51.13971 | 6.94534 | 11551 ft | 369 kts | 89° |
| 2026-05-04 19:45 | 51.14126 | 6.98637 | 12258 ft | 372 kts | 89° |
| 2026-05-04 19:46 | 51.14279 | 7.02773 | 12987 ft | 375 kts | 89° |
| 2026-05-04 19:46 | 51.14430 | 7.06950 | 13688 ft | 379 kts | 89° |
| 2026-05-04 19:46 | 51.14579 | 7.11169 | 14299 ft | 383 kts | 89° |
| 2026-05-04 19:46 | 51.14728 | 7.15429 | 14875 ft | 388 kts | 89° |
| 2026-05-04 19:47 | 51.14877 | 7.19756 | 15419 ft | 393 kts | 89° |
| 2026-05-04 19:47 | 51.15025 | 7.24060 | 16018 ft | 396 kts | 89° |
| 2026-05-04 19:47 | 51.15175 | 7.28452 | 16640 ft | 399 kts | 89° |
| 2026-05-04 19:47 | 51.15321 | 7.32880 | 17262 ft | 401 kts | 90° |
| 2026-05-04 19:48 | 51.15142 | 7.37304 | 17802 ft | 401 kts | 105° |
| 2026-05-04 19:48 | 51.14168 | 7.41452 | 18359 ft | 400 kts | 122° |
| 2026-05-04 19:48 | 51.12567 | 7.45042 | 18871 ft | 399 kts | 134° |
| 2026-05-04 19:48 | 51.10701 | 7.48335 | 19378 ft | 401 kts | 134° |
| 2026-05-04 19:49 | 51.08827 | 7.51654 | 19846 ft | 405 kts | 134° |
| 2026-05-04 19:49 | 51.06944 | 7.55023 | 20286 ft | 410 kts | 134° |
| 2026-05-04 19:49 | 51.05052 | 7.58438 | 20748 ft | 413 kts | 134° |
| 2026-05-04 19:49 | 51.03150 | 7.61889 | 21200 ft | 417 kts | 134° |
| 2026-05-04 19:50 | 51.01229 | 7.65378 | 21656 ft | 420 kts | 134° |
| 2026-05-04 19:50 | 50.99296 | 7.68881 | 22125 ft | 423 kts | 134° |
| 2026-05-04 19:50 | 50.97320 | 7.72364 | 22587 ft | 425 kts | 138° |
| 2026-05-04 19:50 | 50.95065 | 7.75387 | 23005 ft | 424 kts | 149° |
| 2026-05-04 19:51 | 50.92566 | 7.77880 | 23463 ft | 425 kts | 151° |
| 2026-05-04 19:51 | 50.90024 | 7.80317 | 23848 ft | 427 kts | 152° |
| 2026-05-04 19:51 | 50.87473 | 7.82757 | 24244 ft | 429 kts | 152° |
| 2026-05-04 19:51 | 50.84922 | 7.85216 | 24664 ft | 430 kts | 152° |
| 2026-05-04 19:52 | 50.82365 | 7.87698 | 25072 ft | 431 kts | 152° |
| 2026-05-04 19:52 | 50.79849 | 7.90174 | 25436 ft | 433 kts | 149° |
| 2026-05-04 19:52 | 50.77477 | 7.93186 | 25677 ft | 443 kts | 138° |
| 2026-05-04 19:52 | 50.75375 | 7.96880 | 25979 ft | 448 kts | 134° |
| 2026-05-04 19:53 | 50.73346 | 8.00618 | 26317 ft | 449 kts | 134° |
| 2026-05-04 19:53 | 50.71333 | 8.04333 | 26662 ft | 451 kts | 134° |
| 2026-05-04 19:53 | 50.69289 | 8.08081 | 26975 ft | 452 kts | 135° |
| 2026-05-04 19:53 | 50.67219 | 8.11843 | 27278 ft | 454 kts | 135° |
| 2026-05-04 19:54 | 50.65138 | 8.15600 | 27574 ft | 456 kts | 135° |
| 2026-05-04 19:54 | 50.63039 | 8.19369 | 27878 ft | 457 kts | 135° |
| 2026-05-04 19:54 | 50.60937 | 8.23132 | 28169 ft | 459 kts | 135° |
| 2026-05-04 19:54 | 50.58819 | 8.26913 | 28445 ft | 461 kts | 135° |
| 2026-05-04 19:55 | 50.56701 | 8.30690 | 28753 ft | 461 kts | 135° |
| 2026-05-04 19:55 | 50.54582 | 8.34462 | 29222 ft | 458 kts | 135° |
| 2026-05-04 19:55 | 50.52476 | 8.38210 | 29688 ft | 455 kts | 135° |
| 2026-05-04 19:55 | 50.50375 | 8.41942 | 29967 ft | 457 kts | 135° |
| 2026-05-04 19:56 | 50.48255 | 8.45698 | 30135 ft | 461 kts | 135° |
| 2026-05-04 19:56 | 50.46121 | 8.49476 | 30438 ft | 460 kts | 135° |
| 2026-05-04 19:56 | 50.44003 | 8.53223 | 30847 ft | 457 kts | 135° |
| 2026-05-04 19:56 | 50.41901 | 8.56936 | 31233 ft | 455 kts | 136° |
| 2026-05-04 19:57 | 50.39798 | 8.60645 | 31547 ft | 454 kts | 136° |
| 2026-05-04 19:57 | 50.37697 | 8.64343 | 31825 ft | 454 kts | 136° |
| 2026-05-04 19:57 | 50.35604 | 8.68023 | 32119 ft | 453 kts | 136° |
| 2026-05-04 19:57 | 50.33503 | 8.71710 | 32455 ft | 452 kts | 136° |
| 2026-05-04 19:58 | 50.31416 | 8.75369 | 32765 ft | 450 kts | 136° |
| 2026-05-04 19:58 | 50.29330 | 8.79021 | 33044 ft | 450 kts | 136° |
| 2026-05-04 19:58 | 50.27241 | 8.82672 | 33342 ft | 449 kts | 137° |
| 2026-05-04 19:58 | 50.25161 | 8.86302 | 33650 ft | 448 kts | 137° |
| 2026-05-04 19:59 | 50.23083 | 8.89925 | 33963 ft | 447 kts | 137° |
| 2026-05-04 19:59 | 50.21008 | 8.93539 | 34208 ft | 446 kts | 137° |
| 2026-05-04 19:59 | 50.18936 | 8.97140 | 34407 ft | 447 kts | 137° |
| 2026-05-04 19:59 | 50.16883 | 9.00702 | 34592 ft | 447 kts | 137° |
| 2026-05-04 20:00 | 50.14777 | 9.04353 | 34806 ft | 447 kts | 137° |
| 2026-05-04 20:00 | 50.12778 | 9.07993 | 34976 ft | 451 kts | 131° |
| 2026-05-04 20:00 | 50.11133 | 9.12209 | 34989 ft | 460 kts | 120° |
| 2026-05-04 20:01 | 50.09163 | 9.21800 | 34994 ft | 467 kts | 106° |
| 2026-05-04 20:01 | 50.07843 | 9.31697 | 34988 ft | 466 kts | 106° |
| 2026-05-04 20:02 | 50.06488 | 9.41560 | 34986 ft | 465 kts | 106° |
| 2026-05-04 20:02 | 50.05095 | 9.51392 | 34978 ft | 464 kts | 107° |
| 2026-05-04 20:03 | 50.03684 | 9.61192 | 34984 ft | 464 kts | 107° |
| 2026-05-04 20:03 | 50.02265 | 9.70990 | 34977 ft | 465 kts | 107° |
| 2026-05-04 20:04 | 50.00836 | 9.80811 | 34980 ft | 465 kts | 107° |
| 2026-05-04 20:04 | 49.99409 | 9.90555 | 34976 ft | 466 kts | 107° |
| 2026-05-04 20:05 | 49.97961 | 10.00382 | 34976 ft | 467 kts | 107° |
| 2026-05-04 20:05 | 49.96499 | 10.10243 | 34957 ft | 467 kts | 107° |
| 2026-05-04 20:06 | 49.95033 | 10.20070 | 34971 ft | 467 kts | 107° |
| 2026-05-04 20:06 | 49.93565 | 10.29858 | 34964 ft | 468 kts | 107° |
| 2026-05-04 20:07 | 49.92042 | 10.39669 | 34961 ft | 467 kts | 111° |
| 2026-05-04 20:07 | 49.89745 | 10.49026 | 34960 ft | 463 kts | 116° |
| 2026-05-04 20:08 | 49.87673 | 10.56694 | 34955 ft | 463 kts | 116° |
| 2026-05-04 20:08 | 49.85210 | 10.65924 | 34964 ft | 464 kts | 116° |
| 2026-05-04 20:09 | 49.82775 | 10.75204 | 34959 ft | 465 kts | 116° |
| 2026-05-04 20:09 | 49.80345 | 10.84497 | 34949 ft | 465 kts | 116° |
| 2026-05-04 20:10 | 49.77908 | 10.93781 | 34927 ft | 465 kts | 115° |
| 2026-05-04 20:10 | 49.75463 | 11.03049 | 34938 ft | 465 kts | 116° |
| 2026-05-04 20:11 | 49.73013 | 11.12295 | 34945 ft | 465 kts | 116° |
| 2026-05-04 20:11 | 49.70556 | 11.21527 | 34942 ft | 464 kts | 116° |
| 2026-05-04 20:12 | 49.68112 | 11.30684 | 34944 ft | 464 kts | 116° |
| 2026-05-04 20:12 | 49.65646 | 11.39886 | 34946 ft | 463 kts | 115° |
| 2026-05-04 20:13 | 49.63522 | 11.49284 | 34960 ft | 464 kts | 110° |
| 2026-05-04 20:13 | 49.61610 | 11.58784 | 34964 ft | 463 kts | 110° |
| 2026-05-04 20:14 | 49.59685 | 11.68260 | 34975 ft | 462 kts | 110° |
| 2026-05-04 20:14 | 49.57726 | 11.77679 | 34967 ft | 461 kts | 111° |
| 2026-05-04 20:15 | 49.55751 | 11.87061 | 34984 ft | 460 kts | 111° |
| 2026-05-04 20:15 | 49.53771 | 11.96419 | 34980 ft | 459 kts | 111° |
| 2026-05-04 20:16 | 49.51789 | 12.05745 | 34972 ft | 458 kts | 111° |
| 2026-05-04 20:16 | 49.49811 | 12.15017 | 34965 ft | 458 kts | 111° |
| 2026-05-04 20:17 | 49.47813 | 12.24339 | 34931 ft | 459 kts | 111° |
| 2026-05-04 20:17 | 49.45801 | 12.33682 | 34941 ft | 461 kts | 111° |
| 2026-05-04 20:18 | 49.43776 | 12.43042 | 34938 ft | 462 kts | 111° |
| 2026-05-04 20:18 | 49.41735 | 12.52438 | 34938 ft | 464 kts | 111° |
| 2026-05-04 20:19 | 49.39681 | 12.61852 | 34927 ft | 465 kts | 111° |
| 2026-05-04 20:19 | 49.37619 | 12.71266 | 34940 ft | 466 kts | 111° |
| 2026-05-04 20:20 | 49.35495 | 12.80673 | 34935 ft | 466 kts | 113° |
| 2026-05-04 20:20 | 49.33194 | 12.89970 | 34937 ft | 466 kts | 114° |
| 2026-05-04 20:21 | 49.30881 | 12.99241 | 34937 ft | 466 kts | 114° |
| 2026-05-04 20:21 | 49.27455 | 13.13088 | 34937 ft | 464 kts | 114° |
| 2026-05-04 20:22 | 49.25163 | 13.22333 | 34941 ft | 463 kts | 114° |
| 2026-05-04 20:22 | 49.22829 | 13.31511 | 34938 ft | 462 kts | 115° |
| 2026-05-04 20:23 | 49.20375 | 13.40592 | 34928 ft | 461 kts | 115° |
| 2026-05-04 20:23 | 49.17910 | 13.49630 | 34946 ft | 461 kts | 115° |
| 2026-05-04 20:24 | 49.15450 | 13.58675 | 34946 ft | 460 kts | 115° |
| 2026-05-04 20:24 | 49.13005 | 13.67667 | 34941 ft | 461 kts | 115° |
| 2026-05-04 20:25 | 49.10537 | 13.76718 | 34940 ft | 462 kts | 116° |
| 2026-05-04 20:25 | 49.08059 | 13.85764 | 34932 ft | 462 kts | 115° |
| 2026-05-04 20:26 | 49.05576 | 13.94794 | 34939 ft | 462 kts | 115° |
| 2026-05-04 20:26 | 49.03072 | 14.03863 | 34696 ft | 467 kts | 116° |
| 2026-05-04 20:27 | 49.01816 | 14.08403 | 34454 ft | 464 kts | 116° |
| 2026-05-04 20:27 | 49.00567 | 14.12910 | 34209 ft | 461 kts | 116° |
| 2026-05-04 20:27 | 48.99314 | 14.17420 | 33959 ft | 462 kts | 116° |
| 2026-05-04 20:27 | 48.98053 | 14.21948 | 33214 ft | 467 kts | 116° |
| 2026-05-04 20:28 | 48.96785 | 14.26495 | 32577 ft | 467 kts | 115° |
| 2026-05-04 20:28 | 48.95516 | 14.31038 | 31894 ft | 467 kts | 115° |
| 2026-05-04 20:28 | 48.94075 | 14.35439 | 31267 ft | 463 kts | 126° |
| 2026-05-04 20:28 | 48.92159 | 14.39362 | 31111 ft | 463 kts | 130° |
| 2026-05-04 20:29 | 48.90151 | 14.43190 | 30985 ft | 460 kts | 131° |
| 2026-05-04 20:29 | 48.88183 | 14.46923 | 30829 ft | 446 kts | 131° |
| 2026-05-04 20:29 | 48.86256 | 14.50622 | 30665 ft | 446 kts | 130° |
| 2026-05-04 20:29 | 48.84368 | 14.54292 | 30193 ft | 447 kts | 130° |
| 2026-05-04 20:30 | 48.82477 | 14.58007 | 29718 ft | 443 kts | 129° |
| 2026-05-04 20:30 | 48.80608 | 14.61698 | 29125 ft | 439 kts | 129° |
| 2026-05-04 20:30 | 48.78753 | 14.65358 | 28429 ft | 438 kts | 129° |
| 2026-05-04 20:30 | 48.76895 | 14.69021 | 27773 ft | 437 kts | 129° |
| 2026-05-04 20:31 | 48.75040 | 14.72669 | 27121 ft | 437 kts | 129° |
| 2026-05-04 20:31 | 48.73187 | 14.76305 | 26484 ft | 436 kts | 129° |
| 2026-05-04 20:31 | 48.71334 | 14.79933 | 25869 ft | 434 kts | 129° |
| 2026-05-04 20:31 | 48.69483 | 14.83542 | 25259 ft | 433 kts | 129° |
| 2026-05-04 20:32 | 48.67634 | 14.87143 | 24661 ft | 432 kts | 129° |
| 2026-05-04 20:32 | 48.65793 | 14.90725 | 24080 ft | 431 kts | 129° |
| 2026-05-04 20:32 | 48.63953 | 14.94303 | 23493 ft | 430 kts | 129° |
| 2026-05-04 20:32 | 48.62122 | 14.97860 | 22808 ft | 428 kts | 129° |
| 2026-05-04 20:33 | 48.60293 | 15.01406 | 22159 ft | 427 kts | 129° |
| 2026-05-04 20:33 | 48.58691 | 15.05165 | 21482 ft | 428 kts | 114° |
| 2026-05-04 20:33 | 48.57853 | 15.09457 | 20880 ft | 425 kts | 107° |
| 2026-05-04 20:33 | 48.56828 | 15.13622 | 20249 ft | 422 kts | 116° |
| 2026-05-04 20:34 | 48.55565 | 15.17543 | 19654 ft | 419 kts | 118° |
| 2026-05-04 20:34 | 48.54233 | 15.21445 | 19054 ft | 417 kts | 118° |
| 2026-05-04 20:34 | 48.52934 | 15.25294 | 18452 ft | 407 kts | 118° |
| 2026-05-04 20:34 | 48.51696 | 15.29076 | 17811 ft | 396 kts | 117° |
| 2026-05-04 20:35 | 48.50517 | 15.32778 | 17136 ft | 386 kts | 117° |
| 2026-05-04 20:35 | 48.49386 | 15.36400 | 16525 ft | 377 kts | 117° |
| 2026-05-04 20:35 | 48.48292 | 15.39934 | 15930 ft | 368 kts | 117° |
| 2026-05-04 20:35 | 48.47226 | 15.43395 | 15351 ft | 360 kts | 117° |
| 2026-05-04 20:36 | 48.46181 | 15.46787 | 14798 ft | 354 kts | 117° |
| 2026-05-04 20:36 | 48.45154 | 15.50117 | 14249 ft | 348 kts | 117° |
| 2026-05-04 20:36 | 48.44140 | 15.53398 | 13702 ft | 342 kts | 117° |
| 2026-05-04 20:36 | 48.43141 | 15.56628 | 13101 ft | 338 kts | 117° |
| 2026-05-04 20:37 | 48.42156 | 15.59806 | 12504 ft | 333 kts | 117° |
| 2026-05-04 20:37 | 48.41182 | 15.62946 | 11922 ft | 329 kts | 117° |
| 2026-05-04 20:37 | 48.40219 | 15.66044 | 11347 ft | 325 kts | 117° |
| 2026-05-04 20:37 | 48.39266 | 15.69108 | 10774 ft | 321 kts | 117° |
| 2026-05-04 20:38 | 48.38324 | 15.72133 | 10222 ft | 318 kts | 116° |
| 2026-05-04 20:38 | 48.37392 | 15.75122 | 9664 ft | 314 kts | 116° |
| 2026-05-04 20:38 | 48.36467 | 15.78087 | 9075 ft | 311 kts | 116° |
| 2026-05-04 20:38 | 48.35563 | 15.80981 | 8500 ft | 309 kts | 116° |
| 2026-05-04 20:39 | 48.34653 | 15.83890 | 7937 ft | 306 kts | 116° |
| 2026-05-04 20:39 | 48.33767 | 15.86723 | 7688 ft | 293 kts | 116° |
| 2026-05-04 20:39 | 48.32917 | 15.89438 | 7432 ft | 282 kts | 116° |
| 2026-05-04 20:39 | 48.32097 | 15.92050 | 7184 ft | 273 kts | 116° |
| 2026-05-04 20:40 | 48.31300 | 15.94587 | 7190 ft | 266 kts | 116° |
| 2026-05-04 20:40 | 48.30510 | 15.97095 | 7190 ft | 266 kts | 116° |
| 2026-05-04 20:40 | 48.29709 | 15.99607 | 7145 ft | 266 kts | 116° |
| 2026-05-04 20:40 | 48.28945 | 16.02100 | 7011 ft | 259 kts | 115° |
| 2026-05-04 20:41 | 48.28217 | 16.04535 | 6895 ft | 252 kts | 116° |
| 2026-05-04 20:41 | 48.27481 | 16.06874 | 6789 ft | 244 kts | 118° |
| 2026-05-04 20:41 | 48.26750 | 16.09126 | 6695 ft | 236 kts | 118° |
| 2026-05-04 20:41 | 48.26036 | 16.11306 | 6639 ft | 227 kts | 118° |
| 2026-05-04 20:42 | 48.25326 | 16.13458 | 6377 ft | 233 kts | 118° |
| 2026-05-04 20:42 | 48.24603 | 16.15653 | 6069 ft | 236 kts | 118° |
| 2026-05-04 20:42 | 48.23872 | 16.17874 | 5755 ft | 238 kts | 118° |
| 2026-05-04 20:42 | 48.23134 | 16.20121 | 5432 ft | 241 kts | 119° |
| 2026-05-04 20:43 | 48.22388 | 16.22394 | 5108 ft | 244 kts | 118° |
| 2026-05-04 20:43 | 48.21632 | 16.24700 | 4786 ft | 248 kts | 118° |
| 2026-05-04 20:43 | 48.20871 | 16.27020 | 4464 ft | 246 kts | 118° |
| 2026-05-04 20:43 | 48.20130 | 16.29287 | 4123 ft | 237 kts | 119° |
| 2026-05-04 20:44 | 48.19429 | 16.31434 | 3802 ft | 221 kts | 120° |
| 2026-05-04 20:44 | 48.18777 | 16.33430 | 3507 ft | 206 kts | 121° |
| 2026-05-04 20:44 | 48.18165 | 16.35299 | 3245 ft | 195 kts | 121° |
| 2026-05-04 20:44 | 48.17593 | 16.37051 | 2999 ft | 184 kts | 122° |
| 2026-05-04 20:45 | 48.17054 | 16.38702 | 2785 ft | 169 kts | 123° |
| 2026-05-04 20:45 | 48.16551 | 16.40242 | 2540 ft | 159 kts | 123° |
| 2026-05-04 20:45 | 48.16073 | 16.41702 | 2347 ft | 154 kts | 123° |
| 2026-05-04 20:45 | 48.15600 | 16.43146 | 2136 ft | 155 kts | 123° |
| 2026-05-04 20:46 | 48.15131 | 16.44587 | 1906 ft | 152 kts | 126° |
| 2026-05-04 20:46 | 48.14673 | 16.45990 | 1697 ft | 148 kts | 127° |
| 2026-05-04 20:46 | 48.14227 | 16.47359 | 1495 ft | 145 kts | 124° |
| 2026-05-04 20:46 | 48.13774 | 16.48741 | 1293 ft | 150 kts | 121° |
| 2026-05-04 20:47 | 48.13315 | 16.50153 | 1119 ft | 152 kts | 119° |
| 2026-05-04 20:47 | 48.12859 | 16.51555 | 909 ft | 146 kts | 118° |
| 2026-05-04 20:47 | 48.12425 | 16.52895 | 713 ft | 141 kts | 118° |
| 2026-05-04 20:47 | 48.12014 | 16.54178 | 613 ft | 127 kts | 118° |
| 2026-05-04 20:48 | 48.11672 | 16.55209 | 614 ft | 89 kts | 116° |
| 2026-05-04 20:48 | 48.11512 | 16.55742 | 622 ft | 34 kts | 101° |
| 2026-05-04 20:48 | 48.11503 | 16.56013 | 616 ft | 18 kts | 85° |
| 2026-05-04 20:48 | 48.11516 | 16.56103 | 627 ft | 0 kts | 59° |
| 2026-05-04 20:50 | 48.11523 | 16.56116 | 624 ft | 6 kts | 49° |
| 2026-05-04 20:50 | 48.11583 | 16.56169 | 620 ft | 13 kts | 24° |
| 2026-05-04 20:50 | 48.11660 | 16.56244 | 616 ft | 14 kts | 31° |
| 2026-05-04 20:50 | 48.11737 | 16.56301 | 615 ft | 11 kts | 28° |
| 2026-05-04 20:51 | 48.11749 | 16.56403 | 603 ft | 11 kts | 117° |
| 2026-05-04 20:51 | 48.11730 | 16.56457 | 612 ft | 0 kts | 117° |
| 2026-05-04 20:51 | 48.11725 | 16.56472 | 614 ft | 5 kts | 117° |
| 2026-05-04 20:51 | 48.11733 | 16.56520 | 603 ft | 6 kts | 41° |
| 2026-05-04 20:52 | 48.11771 | 16.56565 | 601 ft | 8 kts | 28° |
| 2026-05-04 20:52 | 48.11785 | 16.56575 | 600 ft | 0 kts | 27° |